sensor_id;sensor_type;location;lat;lon;timestamp;P1;durP1;ratioP1;P2;durP2;ratioP2
12556;SDS011;6344;49.932;8.308;2022-09-17T00:00:34;3.30;;;1.87;;
12556;SDS011;6344;49.932;8.308;2022-09-17T00:03:02;4.90;;;1.97;;
12556;SDS011;6344;49.932;8.308;2022-09-17T00:05:31;3.10;;;1.60;;
12556;SDS011;6344;49.932;8.308;2022-09-17T00:07:58;2.63;;;1.77;;
12556;SDS011;6344;49.932;8.308;2022-09-17T00:10:24;3.77;;;2.00;;
12556;SDS011;6344;49.932;8.308;2022-09-17T00:12:51;2.90;;;1.90;;
12556;SDS011;6344;49.932;8.308;2022-09-17T00:15:18;3.57;;;1.87;;
12556;SDS011;6344;49.932;8.308;2022-09-17T00:17:45;5.47;;;2.20;;
12556;SDS011;6344;49.932;8.308;2022-09-17T00:20:11;2.13;;;1.83;;
12556;SDS011;6344;49.932;8.308;2022-09-17T00:22:39;9.43;;;2.07;;
12556;SDS011;6344;49.932;8.308;2022-09-17T00:25:06;3.47;;;2.20;;
12556;SDS011;6344;49.932;8.308;2022-09-17T00:27:33;2.90;;;2.07;;
12556;SDS011;6344;49.932;8.308;2022-09-17T00:30:00;4.63;;;2.33;;
12556;SDS011;6344;49.932;8.308;2022-09-17T00:32:27;2.60;;;1.83;;
12556;SDS011;6344;49.932;8.308;2022-09-17T00:34:53;2.70;;;1.97;;
12556;SDS011;6344;49.932;8.308;2022-09-17T00:37:20;2.40;;;2.20;;
12556;SDS011;6344;49.932;8.308;2022-09-17T00:39:49;2.80;;;1.80;;
12556;SDS011;6344;49.932;8.308;2022-09-17T00:42:15;2.40;;;2.20;;
12556;SDS011;6344;49.932;8.308;2022-09-17T00:44:46;3.47;;;1.90;;
12556;SDS011;6344;49.932;8.308;2022-09-17T00:47:17;3.20;;;2.00;;
12556;SDS011;6344;49.932;8.308;2022-09-17T00:49:50;4.63;;;2.20;;
12556;SDS011;6344;49.932;8.308;2022-09-17T00:52:21;2.57;;;2.30;;
12556;SDS011;6344;49.932;8.308;2022-09-17T00:54:53;3.90;;;2.10;;
12556;SDS011;6344;49.932;8.308;2022-09-17T00:57:25;6.87;;;2.53;;
12556;SDS011;6344;49.932;8.308;2022-09-17T00:59:52;3.27;;;2.30;;
12556;SDS011;6344;49.932;8.308;2022-09-17T01:02:20;3.70;;;2.77;;
12556;SDS011;6344;49.932;8.308;2022-09-17T01:04:47;6.83;;;2.30;;
12556;SDS011;6344;49.932;8.308;2022-09-17T01:07:18;2.47;;;2.27;;
12556;SDS011;6344;49.932;8.308;2022-09-17T01:10:02;7.00;;;2.40;;
12556;SDS011;6344;49.932;8.308;2022-09-17T01:12:40;6.60;;;3.20;;
12556;SDS011;6344;49.932;8.308;2022-09-17T01:15:18;3.53;;;2.70;;
12556;SDS011;6344;49.932;8.308;2022-09-17T01:17:52;5.00;;;2.60;;
12556;SDS011;6344;49.932;8.308;2022-09-17T01:20:42;3.00;;;2.17;;
12556;SDS011;6344;49.932;8.308;2022-09-17T01:23:30;5.10;;;2.47;;
12556;SDS011;6344;49.932;8.308;2022-09-17T01:26:20;8.03;;;2.90;;
12556;SDS011;6344;49.932;8.308;2022-09-17T01:29:02;2.47;;;2.27;;
12556;SDS011;6344;49.932;8.308;2022-09-17T01:31:43;3.27;;;2.60;;
12556;SDS011;6344;49.932;8.308;2022-09-17T01:34:19;2.80;;;2.20;;
12556;SDS011;6344;49.932;8.308;2022-09-17T01:36:51;6.00;;;2.50;;
12556;SDS011;6344;49.932;8.308;2022-09-17T01:39:30;3.83;;;2.50;;
12556;SDS011;6344;49.932;8.308;2022-09-17T01:42:05;4.97;;;2.33;;
12556;SDS011;6344;49.932;8.308;2022-09-17T01:44:41;4.93;;;2.83;;
12556;SDS011;6344;49.932;8.308;2022-09-17T01:47:17;2.77;;;2.47;;
12556;SDS011;6344;49.932;8.308;2022-09-17T01:49:47;2.80;;;2.30;;
12556;SDS011;6344;49.932;8.308;2022-09-17T01:52:17;3.90;;;3.60;;
12556;SDS011;6344;49.932;8.308;2022-09-17T01:54:46;4.27;;;2.63;;
12556;SDS011;6344;49.932;8.308;2022-09-17T01:57:16;3.20;;;2.60;;
12556;SDS011;6344;49.932;8.308;2022-09-17T01:59:48;4.23;;;3.13;;
12556;SDS011;6344;49.932;8.308;2022-09-17T02:02:22;3.50;;;2.93;;
12556;SDS011;6344;49.932;8.308;2022-09-17T02:04:56;4.27;;;2.70;;
12556;SDS011;6344;49.932;8.308;2022-09-17T02:07:26;5.00;;;3.07;;
12556;SDS011;6344;49.932;8.308;2022-09-17T02:09:57;6.67;;;3.83;;
12556;SDS011;6344;49.932;8.308;2022-09-17T02:12:29;8.83;;;2.70;;
12556;SDS011;6344;49.932;8.308;2022-09-17T02:15:00;3.53;;;3.23;;
12556;SDS011;6344;49.932;8.308;2022-09-17T02:17:33;3.70;;;3.40;;
12556;SDS011;6344;49.932;8.308;2022-09-17T02:20:04;7.00;;;2.80;;
12556;SDS011;6344;49.932;8.308;2022-09-17T02:22:33;4.33;;;3.20;;
12556;SDS011;6344;49.932;8.308;2022-09-17T02:25:07;6.30;;;3.60;;
12556;SDS011;6344;49.932;8.308;2022-09-17T02:27:42;6.20;;;3.50;;
12556;SDS011;6344;49.932;8.308;2022-09-17T02:30:17;4.63;;;3.10;;
12556;SDS011;6344;49.932;8.308;2022-09-17T02:32:45;5.37;;;3.03;;
12556;SDS011;6344;49.932;8.308;2022-09-17T02:35:13;9.47;;;3.10;;
12556;SDS011;6344;49.932;8.308;2022-09-17T02:37:39;4.23;;;3.37;;
12556;SDS011;6344;49.932;8.308;2022-09-17T02:40:07;5.97;;;3.00;;
12556;SDS011;6344;49.932;8.308;2022-09-17T02:42:40;5.13;;;2.70;;
12556;SDS011;6344;49.932;8.308;2022-09-17T02:45:25;4.10;;;3.70;;
12556;SDS011;6344;49.932;8.308;2022-09-17T02:48:04;8.37;;;3.37;;
12556;SDS011;6344;49.932;8.308;2022-09-17T02:50:53;3.37;;;3.17;;
12556;SDS011;6344;49.932;8.308;2022-09-17T02:53:31;4.63;;;3.33;;
12556;SDS011;6344;49.932;8.308;2022-09-17T02:56:06;3.97;;;3.60;;
12556;SDS011;6344;49.932;8.308;2022-09-17T02:58:40;4.17;;;3.40;;
12556;SDS011;6344;49.932;8.308;2022-09-17T03:01:13;4.20;;;3.80;;
12556;SDS011;6344;49.932;8.308;2022-09-17T03:03:46;4.23;;;2.70;;
12556;SDS011;6344;49.932;8.308;2022-09-17T03:06:15;3.80;;;3.37;;
12556;SDS011;6344;49.932;8.308;2022-09-17T03:08:44;5.97;;;4.10;;
12556;SDS011;6344;49.932;8.308;2022-09-17T03:11:12;4.80;;;3.10;;
12556;SDS011;6344;49.932;8.308;2022-09-17T03:13:39;7.33;;;3.33;;
12556;SDS011;6344;49.932;8.308;2022-09-17T03:16:06;4.40;;;3.07;;
12556;SDS011;6344;49.932;8.308;2022-09-17T03:18:33;4.17;;;3.77;;
12556;SDS011;6344;49.932;8.308;2022-09-17T03:21:01;3.77;;;3.47;;
12556;SDS011;6344;49.932;8.308;2022-09-17T03:23:27;5.60;;;3.70;;
12556;SDS011;6344;49.932;8.308;2022-09-17T03:25:54;3.97;;;3.53;;
12556;SDS011;6344;49.932;8.308;2022-09-17T03:28:21;3.60;;;3.30;;
12556;SDS011;6344;49.932;8.308;2022-09-17T03:30:49;4.73;;;4.23;;
12556;SDS011;6344;49.932;8.308;2022-09-17T03:33:16;3.63;;;3.33;;
12556;SDS011;6344;49.932;8.308;2022-09-17T03:35:43;8.03;;;3.90;;
12556;SDS011;6344;49.932;8.308;2022-09-17T03:38:11;5.97;;;3.47;;
12556;SDS011;6344;49.932;8.308;2022-09-17T03:40:39;5.23;;;3.63;;
12556;SDS011;6344;49.932;8.308;2022-09-17T03:43:06;3.30;;;3.00;;
12556;SDS011;6344;49.932;8.308;2022-09-17T03:45:33;4.93;;;3.67;;
12556;SDS011;6344;49.932;8.308;2022-09-17T03:48:00;5.23;;;3.63;;
12556;SDS011;6344;49.932;8.308;2022-09-17T03:50:27;7.87;;;4.50;;
12556;SDS011;6344;49.932;8.308;2022-09-17T03:52:54;6.07;;;3.47;;
12556;SDS011;6344;49.932;8.308;2022-09-17T03:55:22;5.67;;;4.30;;
12556;SDS011;6344;49.932;8.308;2022-09-17T03:57:48;6.70;;;4.20;;
12556;SDS011;6344;49.932;8.308;2022-09-17T04:00:15;3.90;;;3.60;;
12556;SDS011;6344;49.932;8.308;2022-09-17T04:02:42;6.93;;;3.90;;
12556;SDS011;6344;49.932;8.308;2022-09-17T04:05:08;6.77;;;3.83;;
12556;SDS011;6344;49.932;8.308;2022-09-17T04:07:35;4.70;;;3.63;;
12556;SDS011;6344;49.932;8.308;2022-09-17T04:10:02;4.80;;;3.77;;
12556;SDS011;6344;49.932;8.308;2022-09-17T04:12:31;5.70;;;4.13;;
12556;SDS011;6344;49.932;8.308;2022-09-17T04:14:58;4.03;;;3.63;;
12556;SDS011;6344;49.932;8.308;2022-09-17T04:17:25;6.53;;;4.10;;
12556;SDS011;6344;49.932;8.308;2022-09-17T04:19:52;7.80;;;3.57;;
12556;SDS011;6344;49.932;8.308;2022-09-17T04:22:19;3.33;;;2.80;;
12556;SDS011;6344;49.932;8.308;2022-09-17T04:24:46;4.23;;;3.93;;
12556;SDS011;6344;49.932;8.308;2022-09-17T04:27:13;4.93;;;3.20;;
12556;SDS011;6344;49.932;8.308;2022-09-17T04:29:41;6.70;;;4.20;;
12556;SDS011;6344;49.932;8.308;2022-09-17T04:32:08;5.40;;;3.33;;
12556;SDS011;6344;49.932;8.308;2022-09-17T04:34:34;6.73;;;3.63;;
12556;SDS011;6344;49.932;8.308;2022-09-17T04:37:01;5.13;;;3.37;;
12556;SDS011;6344;49.932;8.308;2022-09-17T04:39:28;4.33;;;3.93;;
12556;SDS011;6344;49.932;8.308;2022-09-17T04:41:55;7.23;;;4.10;;
12556;SDS011;6344;49.932;8.308;2022-09-17T04:44:21;4.00;;;3.60;;
12556;SDS011;6344;49.932;8.308;2022-09-17T04:46:49;4.87;;;3.60;;
12556;SDS011;6344;49.932;8.308;2022-09-17T04:49:16;4.33;;;3.90;;
12556;SDS011;6344;49.932;8.308;2022-09-17T04:51:43;6.60;;;2.93;;
12556;SDS011;6344;49.932;8.308;2022-09-17T04:54:09;3.97;;;3.10;;
12556;SDS011;6344;49.932;8.308;2022-09-17T04:56:36;5.13;;;3.23;;
12556;SDS011;6344;49.932;8.308;2022-09-17T04:59:03;4.87;;;3.23;;
12556;SDS011;6344;49.932;8.308;2022-09-17T05:01:29;4.23;;;3.87;;
12556;SDS011;6344;49.932;8.308;2022-09-17T05:03:57;4.93;;;3.20;;
12556;SDS011;6344;49.932;8.308;2022-09-17T05:06:24;3.60;;;3.30;;
12556;SDS011;6344;49.932;8.308;2022-09-17T05:08:51;6.00;;;5.33;;
12556;SDS011;6344;49.932;8.308;2022-09-17T05:11:17;5.63;;;3.80;;
12556;SDS011;6344;49.932;8.308;2022-09-17T05:13:44;3.90;;;3.40;;
12556;SDS011;6344;49.932;8.308;2022-09-17T05:16:11;6.20;;;3.63;;
12556;SDS011;6344;49.932;8.308;2022-09-17T05:18:37;4.20;;;3.80;;
12556;SDS011;6344;49.932;8.308;2022-09-17T05:21:05;8.50;;;4.70;;
12556;SDS011;6344;49.932;8.308;2022-09-17T05:23:32;6.97;;;3.83;;
12556;SDS011;6344;49.932;8.308;2022-09-17T05:25:59;9.50;;;4.17;;
12556;SDS011;6344;49.932;8.308;2022-09-17T05:28:26;5.97;;;3.87;;
12556;SDS011;6344;49.932;8.308;2022-09-17T05:30:53;8.63;;;4.10;;
12556;SDS011;6344;49.932;8.308;2022-09-17T05:33:19;3.43;;;3.07;;
12556;SDS011;6344;49.932;8.308;2022-09-17T05:35:46;8.37;;;4.37;;
12556;SDS011;6344;49.932;8.308;2022-09-17T05:38:15;6.83;;;5.00;;
12556;SDS011;6344;49.932;8.308;2022-09-17T05:40:42;4.00;;;3.60;;
12556;SDS011;6344;49.932;8.308;2022-09-17T05:43:09;4.80;;;4.10;;
12556;SDS011;6344;49.932;8.308;2022-09-17T05:45:36;9.57;;;4.13;;
12556;SDS011;6344;49.932;8.308;2022-09-17T05:48:04;4.07;;;3.67;;
12556;SDS011;6344;49.932;8.308;2022-09-17T05:50:34;6.90;;;3.43;;
12556;SDS011;6344;49.932;8.308;2022-09-17T05:53:04;6.97;;;3.47;;
12556;SDS011;6344;49.932;8.308;2022-09-17T05:55:34;3.87;;;3.53;;
12556;SDS011;6344;49.932;8.308;2022-09-17T05:58:07;7.23;;;3.77;;
12556;SDS011;6344;49.932;8.308;2022-09-17T06:00:35;7.67;;;3.80;;
12556;SDS011;6344;49.932;8.308;2022-09-17T06:03:02;10.73;;;3.10;;
12556;SDS011;6344;49.932;8.308;2022-09-17T06:05:29;6.70;;;4.23;;
12556;SDS011;6344;49.932;8.308;2022-09-17T06:07:55;5.33;;;4.57;;
12556;SDS011;6344;49.932;8.308;2022-09-17T06:10:22;9.87;;;4.53;;
12556;SDS011;6344;49.932;8.308;2022-09-17T06:12:55;7.23;;;4.67;;
12556;SDS011;6344;49.932;8.308;2022-09-17T06:15:22;12.43;;;3.90;;
12556;SDS011;6344;49.932;8.308;2022-09-17T06:17:48;6.17;;;3.60;;
12556;SDS011;6344;49.932;8.308;2022-09-17T06:20:15;4.53;;;3.40;;
12556;SDS011;6344;49.932;8.308;2022-09-17T06:22:42;5.23;;;3.83;;
12556;SDS011;6344;49.932;8.308;2022-09-17T06:25:08;5.73;;;3.20;;
12556;SDS011;6344;49.932;8.308;2022-09-17T06:27:35;8.10;;;2.90;;
12556;SDS011;6344;49.932;8.308;2022-09-17T06:30:04;6.60;;;3.67;;
12556;SDS011;6344;49.932;8.308;2022-09-17T06:32:32;5.40;;;3.40;;
12556;SDS011;6344;49.932;8.308;2022-09-17T06:34:58;4.17;;;2.80;;
12556;SDS011;6344;49.932;8.308;2022-09-17T06:37:26;3.03;;;2.67;;
12556;SDS011;6344;49.932;8.308;2022-09-17T06:39:54;4.73;;;3.20;;
12556;SDS011;6344;49.932;8.308;2022-09-17T06:42:21;5.40;;;3.87;;
12556;SDS011;6344;49.932;8.308;2022-09-17T06:44:47;4.70;;;2.70;;
12556;SDS011;6344;49.932;8.308;2022-09-17T06:47:15;6.10;;;3.50;;
12556;SDS011;6344;49.932;8.308;2022-09-17T06:49:42;6.97;;;3.40;;
12556;SDS011;6344;49.932;8.308;2022-09-17T06:52:09;9.93;;;3.70;;
12556;SDS011;6344;49.932;8.308;2022-09-17T06:54:35;5.57;;;3.00;;
12556;SDS011;6344;49.932;8.308;2022-09-17T06:57:02;4.93;;;2.73;;
12556;SDS011;6344;49.932;8.308;2022-09-17T06:59:30;5.90;;;3.40;;
12556;SDS011;6344;49.932;8.308;2022-09-17T07:01:57;5.47;;;2.80;;
12556;SDS011;6344;49.932;8.308;2022-09-17T07:04:25;6.60;;;3.50;;
12556;SDS011;6344;49.932;8.308;2022-09-17T07:06:51;5.40;;;2.53;;
12556;SDS011;6344;49.932;8.308;2022-09-17T07:09:18;5.63;;;3.30;;
12556;SDS011;6344;49.932;8.308;2022-09-17T07:11:45;4.97;;;2.53;;
12556;SDS011;6344;49.932;8.308;2022-09-17T07:14:12;4.03;;;2.77;;
12556;SDS011;6344;49.932;8.308;2022-09-17T07:16:39;5.60;;;2.47;;
12556;SDS011;6344;49.932;8.308;2022-09-17T07:19:05;8.23;;;3.33;;
12556;SDS011;6344;49.932;8.308;2022-09-17T07:21:34;3.60;;;3.30;;
12556;SDS011;6344;49.932;8.308;2022-09-17T07:24:01;8.77;;;3.80;;
12556;SDS011;6344;49.932;8.308;2022-09-17T07:26:27;4.33;;;3.20;;
12556;SDS011;6344;49.932;8.308;2022-09-17T07:28:55;6.97;;;4.00;;
12556;SDS011;6344;49.932;8.308;2022-09-17T07:31:21;5.30;;;3.20;;
12556;SDS011;6344;49.932;8.308;2022-09-17T07:33:48;8.30;;;3.83;;
12556;SDS011;6344;49.932;8.308;2022-09-17T07:36:15;8.83;;;3.63;;
12556;SDS011;6344;49.932;8.308;2022-09-17T07:38:43;5.27;;;3.40;;
12556;SDS011;6344;49.932;8.308;2022-09-17T07:41:11;3.67;;;2.00;;
12556;SDS011;6344;49.932;8.308;2022-09-17T07:43:39;5.57;;;3.70;;
12556;SDS011;6344;49.932;8.308;2022-09-17T07:46:09;4.80;;;2.70;;
12556;SDS011;6344;49.932;8.308;2022-09-17T07:48:39;8.27;;;2.83;;
12556;SDS011;6344;49.932;8.308;2022-09-17T07:51:06;5.87;;;3.40;;
12556;SDS011;6344;49.932;8.308;2022-09-17T07:53:33;6.03;;;3.20;;
12556;SDS011;6344;49.932;8.308;2022-09-17T07:56:01;10.37;;;2.87;;
12556;SDS011;6344;49.932;8.308;2022-09-17T07:58:28;6.70;;;3.37;;
12556;SDS011;6344;49.932;8.308;2022-09-17T08:00:58;5.87;;;2.67;;
12556;SDS011;6344;49.932;8.308;2022-09-17T08:03:26;3.90;;;3.20;;
12556;SDS011;6344;49.932;8.308;2022-09-17T08:05:53;7.00;;;2.73;;
12556;SDS011;6344;49.932;8.308;2022-09-17T08:08:19;3.23;;;2.63;;
12556;SDS011;6344;49.932;8.308;2022-09-17T08:10:46;3.23;;;2.43;;
12556;SDS011;6344;49.932;8.308;2022-09-17T08:13:14;6.63;;;2.50;;
12556;SDS011;6344;49.932;8.308;2022-09-17T08:15:41;4.67;;;2.97;;
12556;SDS011;6344;49.932;8.308;2022-09-17T08:18:07;3.23;;;2.10;;
12556;SDS011;6344;49.932;8.308;2022-09-17T08:20:34;4.13;;;2.53;;
12556;SDS011;6344;49.932;8.308;2022-09-17T08:23:01;11.60;;;2.77;;
12556;SDS011;6344;49.932;8.308;2022-09-17T08:25:27;5.10;;;3.20;;
12556;SDS011;6344;49.932;8.308;2022-09-17T08:27:54;12.20;;;8.70;;
12556;SDS011;6344;49.932;8.308;2022-09-17T08:30:22;6.87;;;5.00;;
12556;SDS011;6344;49.932;8.308;2022-09-17T08:32:49;8.00;;;4.33;;
12556;SDS011;6344;49.932;8.308;2022-09-17T08:35:16;5.17;;;3.10;;
12556;SDS011;6344;49.932;8.308;2022-09-17T08:37:43;7.13;;;2.60;;
12556;SDS011;6344;49.932;8.308;2022-09-17T08:40:12;4.63;;;3.87;;
12556;SDS011;6344;49.932;8.308;2022-09-17T08:42:48;8.43;;;2.97;;
12556;SDS011;6344;49.932;8.308;2022-09-17T08:45:20;3.70;;;2.30;;
12556;SDS011;6344;49.932;8.308;2022-09-17T08:47:50;4.97;;;2.60;;
12556;SDS011;6344;49.932;8.308;2022-09-17T08:50:22;8.70;;;3.00;;
12556;SDS011;6344;49.932;8.308;2022-09-17T08:56:01;3.90;;;2.20;;
12556;SDS011;6344;49.932;8.308;2022-09-17T08:58:39;5.23;;;3.03;;
12556;SDS011;6344;49.932;8.308;2022-09-17T09:01:14;2.07;;;1.87;;
12556;SDS011;6344;49.932;8.308;2022-09-17T09:03:55;4.07;;;3.17;;
12556;SDS011;6344;49.932;8.308;2022-09-17T09:06:30;4.20;;;2.27;;
12556;SDS011;6344;49.932;8.308;2022-09-17T09:09:02;5.00;;;2.40;;
12556;SDS011;6344;49.932;8.308;2022-09-17T09:11:31;4.83;;;2.60;;
12556;SDS011;6344;49.932;8.308;2022-09-17T09:14:00;5.20;;;2.27;;
12556;SDS011;6344;49.932;8.308;2022-09-17T09:16:38;8.30;;;2.87;;
12556;SDS011;6344;49.932;8.308;2022-09-17T09:19:10;3.13;;;2.00;;
12556;SDS011;6344;49.932;8.308;2022-09-17T09:21:46;3.00;;;1.90;;
12556;SDS011;6344;49.932;8.308;2022-09-17T09:24:25;3.87;;;2.10;;
12556;SDS011;6344;49.932;8.308;2022-09-17T09:27:02;4.27;;;2.17;;
12556;SDS011;6344;49.932;8.308;2022-09-17T09:29:43;2.83;;;1.80;;
12556;SDS011;6344;49.932;8.308;2022-09-17T09:32:19;4.17;;;2.13;;
12556;SDS011;6344;49.932;8.308;2022-09-17T09:34:55;2.30;;;2.00;;
12556;SDS011;6344;49.932;8.308;2022-09-17T09:37:25;2.43;;;1.97;;
12556;SDS011;6344;49.932;8.308;2022-09-17T09:39:55;4.60;;;1.90;;
12556;SDS011;6344;49.932;8.308;2022-09-17T09:42:32;3.10;;;1.70;;
12556;SDS011;6344;49.932;8.308;2022-09-17T09:45:01;2.63;;;2.30;;
12556;SDS011;6344;49.932;8.308;2022-09-17T09:47:42;4.27;;;2.60;;
12556;SDS011;6344;49.932;8.308;2022-09-17T09:50:29;3.33;;;1.30;;
12556;SDS011;6344;49.932;8.308;2022-09-17T09:53:05;3.00;;;1.53;;
12556;SDS011;6344;49.932;8.308;2022-09-17T09:55:45;3.13;;;2.03;;
12556;SDS011;6344;49.932;8.308;2022-09-17T09:58:23;3.50;;;2.00;;
12556;SDS011;6344;49.932;8.308;2022-09-17T10:00:59;3.50;;;3.20;;
12556;SDS011;6344;49.932;8.308;2022-09-17T10:03:27;6.13;;;2.73;;
12556;SDS011;6344;49.932;8.308;2022-09-17T10:05:56;2.67;;;1.93;;
12556;SDS011;6344;49.932;8.308;2022-09-17T10:08:25;3.37;;;1.87;;
12556;SDS011;6344;49.932;8.308;2022-09-17T10:10:56;2.60;;;2.40;;
12556;SDS011;6344;49.932;8.308;2022-09-17T10:13:25;2.13;;;1.70;;
12556;SDS011;6344;49.932;8.308;2022-09-17T10:15:53;2.30;;;1.87;;
12556;SDS011;6344;49.932;8.308;2022-09-17T10:18:20;4.40;;;2.03;;
12556;SDS011;6344;49.932;8.308;2022-09-17T10:20:54;1.70;;;1.57;;
12556;SDS011;6344;49.932;8.308;2022-09-17T10:23:23;1.40;;;1.20;;
12556;SDS011;6344;49.932;8.308;2022-09-17T10:25:51;3.00;;;1.77;;
12556;SDS011;6344;49.932;8.308;2022-09-17T10:28:37;1.67;;;1.30;;
12556;SDS011;6344;49.932;8.308;2022-09-17T10:31:12;2.77;;;1.70;;
12556;SDS011;6344;49.932;8.308;2022-09-17T10:33:49;1.87;;;1.63;;
12556;SDS011;6344;49.932;8.308;2022-09-17T10:36:34;2.60;;;1.60;;
12556;SDS011;6344;49.932;8.308;2022-09-17T10:39:17;2.07;;;1.43;;
12556;SDS011;6344;49.932;8.308;2022-09-17T10:41:52;3.00;;;1.80;;
12556;SDS011;6344;49.932;8.308;2022-09-17T10:44:21;5.50;;;1.70;;
12556;SDS011;6344;49.932;8.308;2022-09-17T10:46:49;5.40;;;2.33;;
12556;SDS011;6344;49.932;8.308;2022-09-17T10:49:19;8.73;;;3.30;;
12556;SDS011;6344;49.932;8.308;2022-09-17T10:52:04;6.00;;;1.87;;
12556;SDS011;6344;49.932;8.308;2022-09-17T10:54:37;5.37;;;2.73;;
12556;SDS011;6344;49.932;8.308;2022-09-17T10:57:23;5.07;;;1.80;;
12556;SDS011;6344;49.932;8.308;2022-09-17T10:59:57;2.40;;;1.60;;
12556;SDS011;6344;49.932;8.308;2022-09-17T11:02:39;4.27;;;1.83;;
12556;SDS011;6344;49.932;8.308;2022-09-17T11:05:39;2.80;;;1.63;;
12556;SDS011;6344;49.932;8.308;2022-09-17T11:08:18;3.53;;;1.53;;
12556;SDS011;6344;49.932;8.308;2022-09-17T11:10:50;7.90;;;1.87;;
12556;SDS011;6344;49.932;8.308;2022-09-17T11:13:25;3.30;;;2.70;;
12556;SDS011;6344;49.932;8.308;2022-09-17T11:16:02;3.60;;;2.20;;
12556;SDS011;6344;49.932;8.308;2022-09-17T11:18:39;7.50;;;1.53;;
12556;SDS011;6344;49.932;8.308;2022-09-17T11:21:22;3.73;;;2.07;;
12556;SDS011;6344;49.932;8.308;2022-09-17T11:27:07;2.60;;;1.33;;
12556;SDS011;6344;49.932;8.308;2022-09-17T11:29:47;7.37;;;2.27;;
12556;SDS011;6344;49.932;8.308;2022-09-17T11:32:31;3.50;;;1.93;;
12556;SDS011;6344;49.932;8.308;2022-09-17T11:35:19;5.00;;;2.17;;
12556;SDS011;6344;49.932;8.308;2022-09-17T11:37:50;4.10;;;1.50;;
12556;SDS011;6344;49.932;8.308;2022-09-17T11:40:23;2.47;;;1.50;;
12556;SDS011;6344;49.932;8.308;2022-09-17T11:42:58;3.40;;;1.50;;
12556;SDS011;6344;49.932;8.308;2022-09-17T11:45:28;4.13;;;1.60;;
12556;SDS011;6344;49.932;8.308;2022-09-17T11:48:02;4.37;;;1.80;;
12556;SDS011;6344;49.932;8.308;2022-09-17T11:50:33;2.53;;;1.40;;
12556;SDS011;6344;49.932;8.308;2022-09-17T11:53:06;2.43;;;1.70;;
12556;SDS011;6344;49.932;8.308;2022-09-17T11:55:43;3.30;;;1.90;;
12556;SDS011;6344;49.932;8.308;2022-09-17T11:58:16;5.00;;;1.67;;
12556;SDS011;6344;49.932;8.308;2022-09-17T12:00:52;2.00;;;1.20;;
12556;SDS011;6344;49.932;8.308;2022-09-17T12:03:27;3.83;;;1.53;;
12556;SDS011;6344;49.932;8.308;2022-09-17T12:05:58;3.30;;;1.30;;
12556;SDS011;6344;49.932;8.308;2022-09-17T12:08:33;2.40;;;1.63;;
12556;SDS011;6344;49.932;8.308;2022-09-17T12:11:10;2.57;;;1.37;;
12556;SDS011;6344;49.932;8.308;2022-09-17T12:13:41;4.40;;;2.07;;
12556;SDS011;6344;49.932;8.308;2022-09-17T12:16:14;1.40;;;1.30;;
12556;SDS011;6344;49.932;8.308;2022-09-17T12:18:45;1.93;;;1.27;;
12556;SDS011;6344;49.932;8.308;2022-09-17T12:21:17;2.20;;;1.30;;
12556;SDS011;6344;49.932;8.308;2022-09-17T12:23:47;2.30;;;1.20;;
12556;SDS011;6344;49.932;8.308;2022-09-17T12:26:23;2.50;;;1.50;;
12556;SDS011;6344;49.932;8.308;2022-09-17T12:28:59;1.47;;;1.10;;
12556;SDS011;6344;49.932;8.308;2022-09-17T12:31:34;3.70;;;1.50;;
12556;SDS011;6344;49.932;8.308;2022-09-17T12:34:15;2.20;;;1.63;;
12556;SDS011;6344;49.932;8.308;2022-09-17T12:36:51;1.77;;;1.17;;
12556;SDS011;6344;49.932;8.308;2022-09-17T12:39:35;3.70;;;1.50;;
12556;SDS011;6344;49.932;8.308;2022-09-17T12:42:31;1.50;;;1.20;;
12556;SDS011;6344;49.932;8.308;2022-09-17T12:45:10;5.13;;;1.20;;
12556;SDS011;6344;49.932;8.308;2022-09-17T12:47:58;4.10;;;1.10;;
12556;SDS011;6344;49.932;8.308;2022-09-17T12:50:38;1.77;;;1.10;;
12556;SDS011;6344;49.932;8.308;2022-09-17T12:53:19;2.20;;;1.20;;
12556;SDS011;6344;49.932;8.308;2022-09-17T12:56:00;2.43;;;1.30;;
12556;SDS011;6344;49.932;8.308;2022-09-17T12:58:36;2.03;;;1.10;;
12556;SDS011;6344;49.932;8.308;2022-09-17T13:01:18;2.10;;;1.40;;
12556;SDS011;6344;49.932;8.308;2022-09-17T13:03:50;6.13;;;1.60;;
12556;SDS011;6344;49.932;8.308;2022-09-17T13:09:28;2.30;;;1.13;;
12556;SDS011;6344;49.932;8.308;2022-09-17T13:12:09;2.20;;;1.30;;
12556;SDS011;6344;49.932;8.308;2022-09-17T13:14:50;1.40;;;1.10;;
12556;SDS011;6344;49.932;8.308;2022-09-17T13:17:30;1.93;;;1.33;;
12556;SDS011;6344;49.932;8.308;2022-09-17T13:20:09;1.40;;;1.27;;
12556;SDS011;6344;49.932;8.308;2022-09-17T13:22:42;1.30;;;1.20;;
12556;SDS011;6344;49.932;8.308;2022-09-17T13:25:11;1.53;;;1.10;;
12556;SDS011;6344;49.932;8.308;2022-09-17T13:27:39;2.43;;;1.20;;
12556;SDS011;6344;49.932;8.308;2022-09-17T13:30:09;2.07;;;1.63;;
12556;SDS011;6344;49.932;8.308;2022-09-17T13:38:14;1.53;;;1.23;;
12556;SDS011;6344;49.932;8.308;2022-09-17T13:40:43;3.13;;;1.40;;
12556;SDS011;6344;49.932;8.308;2022-09-17T13:43:11;2.37;;;1.33;;
12556;SDS011;6344;49.932;8.308;2022-09-17T13:48:46;2.93;;;1.30;;
12556;SDS011;6344;49.932;8.308;2022-09-17T13:54:11;2.53;;;1.23;;
12556;SDS011;6344;49.932;8.308;2022-09-17T13:56:40;5.57;;;4.90;;
12556;SDS011;6344;49.932;8.308;2022-09-17T13:59:10;3.03;;;1.97;;
12556;SDS011;6344;49.932;8.308;2022-09-17T14:10:55;1.60;;;1.20;;
12556;SDS011;6344;49.932;8.308;2022-09-17T14:13:44;1.50;;;1.30;;
12556;SDS011;6344;49.932;8.308;2022-09-17T14:19:16;1.97;;;1.60;;
12556;SDS011;6344;49.932;8.308;2022-09-17T14:21:57;2.70;;;1.73;;
12556;SDS011;6344;49.932;8.308;2022-09-17T14:24:28;2.17;;;1.40;;
12556;SDS011;6344;49.932;8.308;2022-09-17T14:27:06;1.93;;;1.23;;
12556;SDS011;6344;49.932;8.308;2022-09-17T14:29:40;1.80;;;1.30;;
12556;SDS011;6344;49.932;8.308;2022-09-17T14:32:21;2.63;;;1.33;;
12556;SDS011;6344;49.932;8.308;2022-09-17T14:34:56;3.70;;;1.40;;
12556;SDS011;6344;49.932;8.308;2022-09-17T14:37:23;1.30;;;1.20;;
12556;SDS011;6344;49.932;8.308;2022-09-17T14:39:53;2.20;;;1.00;;
12556;SDS011;6344;49.932;8.308;2022-09-17T14:42:21;2.47;;;1.17;;
12556;SDS011;6344;49.932;8.308;2022-09-17T14:44:55;1.50;;;1.20;;
12556;SDS011;6344;49.932;8.308;2022-09-17T14:47:24;3.60;;;1.30;;
12556;SDS011;6344;49.932;8.308;2022-09-17T14:49:51;1.30;;;1.10;;
12556;SDS011;6344;49.932;8.308;2022-09-17T14:52:23;3.00;;;1.40;;
12556;SDS011;6344;49.932;8.308;2022-09-17T14:55:09;2.40;;;1.43;;
12556;SDS011;6344;49.932;8.308;2022-09-17T14:57:36;2.30;;;1.50;;
12556;SDS011;6344;49.932;8.308;2022-09-17T15:00:04;2.07;;;1.20;;
12556;SDS011;6344;49.932;8.308;2022-09-17T15:02:33;1.73;;;1.23;;
12556;SDS011;6344;49.932;8.308;2022-09-17T15:05:14;1.80;;;1.30;;
12556;SDS011;6344;49.932;8.308;2022-09-17T15:07:43;3.30;;;1.17;;
12556;SDS011;6344;49.932;8.308;2022-09-17T15:10:14;1.20;;;1.00;;
12556;SDS011;6344;49.932;8.308;2022-09-17T15:12:42;2.60;;;1.47;;
12556;SDS011;6344;49.932;8.308;2022-09-17T15:15:15;2.07;;;1.10;;
12556;SDS011;6344;49.932;8.308;2022-09-17T15:17:44;1.77;;;1.20;;
12556;SDS011;6344;49.932;8.308;2022-09-17T15:20:13;2.53;;;1.10;;
12556;SDS011;6344;49.932;8.308;2022-09-17T15:22:43;2.37;;;1.00;;
12556;SDS011;6344;49.932;8.308;2022-09-17T15:25:16;3.63;;;1.40;;
12556;SDS011;6344;49.932;8.308;2022-09-17T15:27:47;2.00;;;1.20;;
12556;SDS011;6344;49.932;8.308;2022-09-17T15:30:18;2.23;;;1.03;;
12556;SDS011;6344;49.932;8.308;2022-09-17T15:32:48;1.10;;;0.90;;
12556;SDS011;6344;49.932;8.308;2022-09-17T15:35:20;1.40;;;1.30;;
12556;SDS011;6344;49.932;8.308;2022-09-17T15:37:52;2.27;;;1.13;;
12556;SDS011;6344;49.932;8.308;2022-09-17T15:40:25;1.57;;;1.10;;
12556;SDS011;6344;49.932;8.308;2022-09-17T15:42:56;1.93;;;1.10;;
12556;SDS011;6344;49.932;8.308;2022-09-17T15:45:29;1.90;;;1.30;;
12556;SDS011;6344;49.932;8.308;2022-09-17T15:48:01;1.47;;;1.27;;
12556;SDS011;6344;49.932;8.308;2022-09-17T15:50:29;1.67;;;1.40;;
12556;SDS011;6344;49.932;8.308;2022-09-17T15:53:10;2.60;;;1.40;;
12556;SDS011;6344;49.932;8.308;2022-09-17T15:55:58;1.67;;;1.10;;
12556;SDS011;6344;49.932;8.308;2022-09-17T15:58:28;2.03;;;1.50;;